Terminal Aerodrome Forecast
Issued by NWS Jackson, KY

Home | Current Version | Previous Version | Text Only | Print | Product List | Glossary On
Versions: 1 2 3 4 5 6 7 8 9 10 11 12 13 14 15 16 17 18 19 20 21 22 23 24 25 26 27 28 29
330
FTUS43 KJKL 070535
TAFLOZ
TAF
KLOZ 070535Z 0706/0806 31005KT P6SM BKN020
     FM071600 34004KT P6SM FEW025
     FM080500 33003KT P6SM BKN100=

USA.gov is the U.S. government's official web portal to all federal, state and local government web resources and services.